sensor_id;sensor_type;location;lat;lon;timestamp;pressure;altitude;pressure_sealevel;temperature;humidity
51261;BME280;61705;46.228;24.812;2022-09-02T00:02:08;97479.41;;;16.00;93.98
51261;BME280;61705;46.228;24.812;2022-09-02T00:04:35;97479.50;;;16.11;94.05
51261;BME280;61705;46.228;24.812;2022-09-02T00:07:02;97474.47;;;16.20;94.30
51261;BME280;61705;46.228;24.812;2022-09-02T00:09:29;97480.88;;;16.17;93.87
51261;BME280;61705;46.228;24.812;2022-09-02T00:11:56;97475.34;;;16.07;94.06
51261;BME280;61705;46.228;24.812;2022-09-02T00:14:29;97475.56;;;16.04;94.09
51261;BME280;61705;46.228;24.812;2022-09-02T00:16:56;97478.44;;;16.01;94.28
51261;BME280;61705;46.228;24.812;2022-09-02T00:19:27;97479.91;;;16.05;94.23
51261;BME280;61705;46.228;24.812;2022-09-02T00:21:55;97475.88;;;16.00;94.19
51261;BME280;61705;46.228;24.812;2022-09-02T00:24:23;97475.88;;;16.00;94.17
51261;BME280;61705;46.228;24.812;2022-09-02T00:26:50;97490.50;;;16.07;93.88
51261;BME280;61705;46.228;24.812;2022-09-02T00:29:22;97480.78;;;16.06;93.58
51261;BME280;61705;46.228;24.812;2022-09-02T00:31:49;97491.84;;;16.00;93.16
51261;BME280;61705;46.228;24.812;2022-09-02T00:34:15;97484.19;;;15.95;93.26
51261;BME280;61705;46.228;24.812;2022-09-02T00:36:43;97476.53;;;15.91;92.82
51261;BME280;61705;46.228;24.812;2022-09-02T00:39:09;97484.41;;;15.79;93.60
51261;BME280;61705;46.228;24.812;2022-09-02T00:41:38;97475.13;;;15.85;93.87
51261;BME280;61705;46.228;24.812;2022-09-02T00:44:09;97477.09;;;15.83;93.71
51261;BME280;61705;46.228;24.812;2022-09-02T00:46:37;97474.19;;;15.86;93.72
51261;BME280;61705;46.228;24.812;2022-09-02T00:49:20;97476.63;;;15.89;93.44
51261;BME280;61705;46.228;24.812;2022-09-02T00:54:22;97476.97;;;15.84;93.55
51261;BME280;61705;46.228;24.812;2022-09-02T00:56:52;97479.84;;;15.81;93.90
51261;BME280;61705;46.228;24.812;2022-09-02T00:59:47;97477.50;;;15.77;93.81
51261;BME280;61705;46.228;24.812;2022-09-02T01:02:11;97478.69;;;15.73;94.12
51261;BME280;61705;46.228;24.812;2022-09-02T01:04:39;97476.63;;;15.63;94.12
51261;BME280;61705;46.228;24.812;2022-09-02T01:07:06;97474.41;;;15.70;93.70
51261;BME280;61705;46.228;24.812;2022-09-02T01:09:33;97476.09;;;15.71;93.78
51261;BME280;61705;46.228;24.812;2022-09-02T01:11:59;97476.31;;;15.68;93.88
51261;BME280;61705;46.228;24.812;2022-09-02T01:14:29;97480.59;;;15.71;94.09
51261;BME280;61705;46.228;24.812;2022-09-02T01:16:58;97472.94;;;15.66;93.91
51261;BME280;61705;46.228;24.812;2022-09-02T01:19:35;97478.84;;;15.57;93.74
51261;BME280;61705;46.228;24.812;2022-09-02T01:22:30;97479.16;;;15.52;93.84
51261;BME280;61705;46.228;24.812;2022-09-02T01:25:07;97478.28;;;15.52;93.67
51261;BME280;61705;46.228;24.812;2022-09-02T01:27:35;97478.63;;;15.47;93.74
51261;BME280;61705;46.228;24.812;2022-09-02T01:30:04;97482.25;;;15.46;93.17
51261;BME280;61705;46.228;24.812;2022-09-02T01:32:32;97489.16;;;15.36;92.69
51261;BME280;61705;46.228;24.812;2022-09-02T01:34:59;97478.72;;;15.33;92.50
51261;BME280;61705;46.228;24.812;2022-09-02T01:37:25;97473.91;;;15.25;92.30
51261;BME280;61705;46.228;24.812;2022-09-02T01:39:52;97479.31;;;15.24;92.33
51261;BME280;61705;46.228;24.812;2022-09-02T01:42:20;97474.44;;;15.30;92.22
51261;BME280;61705;46.228;24.812;2022-09-02T01:44:47;97480.53;;;15.32;92.69
51261;BME280;61705;46.228;24.812;2022-09-02T01:47:17;97475.72;;;15.25;92.30
51261;BME280;61705;46.228;24.812;2022-09-02T01:49:45;97466.97;;;15.23;92.65
51261;BME280;61705;46.228;24.812;2022-09-02T01:52:12;97475.28;;;15.31;92.42
51261;BME280;61705;46.228;24.812;2022-09-02T01:54:39;97476.25;;;15.30;92.50
51261;BME280;61705;46.228;24.812;2022-09-02T01:57:06;97483.19;;;15.32;92.42
51261;BME280;61705;46.228;24.812;2022-09-02T01:59:33;97475.09;;;15.34;92.25
51261;BME280;61705;46.228;24.812;2022-09-02T02:02:00;97479.25;;;15.38;92.50
51261;BME280;61705;46.228;24.812;2022-09-02T02:04:26;97478.38;;;15.37;92.86
51261;BME280;61705;46.228;24.812;2022-09-02T02:06:54;97489.03;;;15.37;92.19
51261;BME280;61705;46.228;24.812;2022-09-02T02:09:22;97486.50;;;15.36;92.61
51261;BME280;61705;46.228;24.812;2022-09-02T02:11:49;97477.53;;;15.37;92.98
51261;BME280;61705;46.228;24.812;2022-09-02T02:14:16;97474.13;;;15.35;93.09
51261;BME280;61705;46.228;24.812;2022-09-02T02:16:44;97484.56;;;15.38;92.58
51261;BME280;61705;46.228;24.812;2022-09-02T02:19:11;97485.72;;;15.34;92.17
51261;BME280;61705;46.228;24.812;2022-09-02T02:21:38;97486.28;;;15.39;92.17
51261;BME280;61705;46.228;24.812;2022-09-02T02:24:06;97485.13;;;15.43;92.37
51261;BME280;61705;46.228;24.812;2022-09-02T02:26:35;97478.63;;;15.47;91.81
51261;BME280;61705;46.228;24.812;2022-09-02T02:29:02;97479.59;;;15.46;91.70
51261;BME280;61705;46.228;24.812;2022-09-02T02:31:28;97481.81;;;15.39;91.42
51261;BME280;61705;46.228;24.812;2022-09-02T02:33:55;97480.75;;;15.42;90.97
51261;BME280;61705;46.228;24.812;2022-09-02T02:36:22;97480.53;;;15.45;91.13
51261;BME280;61705;46.228;24.812;2022-09-02T02:38:52;97481.41;;;15.46;90.84
51261;BME280;61705;46.228;24.812;2022-09-02T02:41:19;97476.16;;;15.44;91.01
51261;BME280;61705;46.228;24.812;2022-09-02T02:43:46;97477.84;;;15.45;90.58
51261;BME280;61705;46.228;24.812;2022-09-02T02:46:13;97481.16;;;15.36;91.22
51261;BME280;61705;46.228;24.812;2022-09-02T02:48:41;97474.75;;;15.26;91.21
51261;BME280;61705;46.228;24.812;2022-09-02T02:51:08;97476.25;;;15.30;91.31
51261;BME280;61705;46.228;24.812;2022-09-02T02:53:35;97476.38;;;15.41;90.79
51261;BME280;61705;46.228;24.812;2022-09-02T02:56:04;97475.63;;;15.52;90.39
51261;BME280;61705;46.228;24.812;2022-09-02T02:58:31;97473.50;;;15.44;90.13
51261;BME280;61705;46.228;24.812;2022-09-02T03:01:01;97477.09;;;15.30;90.11
51261;BME280;61705;46.228;24.812;2022-09-02T03:03:29;97482.00;;;15.24;90.17
51261;BME280;61705;46.228;24.812;2022-09-02T03:05:57;97476.38;;;15.28;90.42
51261;BME280;61705;46.228;24.812;2022-09-02T03:08:24;97482.03;;;15.36;90.24
51261;BME280;61705;46.228;24.812;2022-09-02T03:10:53;97488.41;;;15.34;90.33
51261;BME280;61705;46.228;24.812;2022-09-02T03:13:22;97481.78;;;15.27;90.44
51261;BME280;61705;46.228;24.812;2022-09-02T03:15:49;97480.94;;;15.26;90.42
51261;BME280;61705;46.228;24.812;2022-09-02T03:18:16;97495.63;;;15.19;90.10
51261;BME280;61705;46.228;24.812;2022-09-02T03:20:44;97493.19;;;15.29;90.19
51261;BME280;61705;46.228;24.812;2022-09-02T03:23:12;97500.66;;;15.36;89.79
51261;BME280;61705;46.228;24.812;2022-09-02T03:25:45;97501.19;;;15.41;89.47
51261;BME280;61705;46.228;24.812;2022-09-02T03:28:13;97502.06;;;15.42;89.25
51261;BME280;61705;46.228;24.812;2022-09-02T03:30:40;97503.28;;;15.24;89.83
51261;BME280;61705;46.228;24.812;2022-09-02T03:33:08;97500.09;;;15.19;89.77
51261;BME280;61705;46.228;24.812;2022-09-02T03:35:41;97502.44;;;15.23;89.93
51261;BME280;61705;46.228;24.812;2022-09-02T03:38:14;97505.94;;;15.24;90.19
51261;BME280;61705;46.228;24.812;2022-09-02T03:40:43;97501.22;;;15.02;91.34
51261;BME280;61705;46.228;24.812;2022-09-02T03:43:11;97504.41;;;14.80;93.13
51261;BME280;61705;46.228;24.812;2022-09-02T03:45:38;97504.34;;;14.81;93.90
51261;BME280;61705;46.228;24.812;2022-09-02T03:48:12;97503.69;;;14.78;94.70
51261;BME280;61705;46.228;24.812;2022-09-02T03:50:44;97509.28;;;14.73;95.76
51261;BME280;61705;46.228;24.812;2022-09-02T03:53:14;97510.75;;;14.64;96.40
51261;BME280;61705;46.228;24.812;2022-09-02T03:55:45;97516.09;;;14.50;97.08
51261;BME280;61705;46.228;24.812;2022-09-02T03:58:14;97515.44;;;14.18;96.74
51261;BME280;61705;46.228;24.812;2022-09-02T04:00:42;97520.84;;;14.16;97.37
51261;BME280;61705;46.228;24.812;2022-09-02T04:03:10;97522.44;;;14.05;97.44
51261;BME280;61705;46.228;24.812;2022-09-02T04:05:38;97514.09;;;14.11;97.37
51261;BME280;61705;46.228;24.812;2022-09-02T04:08:09;97518.56;;;14.10;97.77
51261;BME280;61705;46.228;24.812;2022-09-02T04:10:38;97510.31;;;14.15;98.13
51261;BME280;61705;46.228;24.812;2022-09-02T04:13:05;97519.53;;;14.23;98.37
51261;BME280;61705;46.228;24.812;2022-09-02T04:15:40;97512.59;;;14.21;98.23
51261;BME280;61705;46.228;24.812;2022-09-02T04:18:16;97520.00;;;14.16;98.33
51261;BME280;61705;46.228;24.812;2022-09-02T04:20:46;97519.53;;;14.09;98.47
51261;BME280;61705;46.228;24.812;2022-09-02T04:23:14;97514.47;;;14.05;98.56
51261;BME280;61705;46.228;24.812;2022-09-02T04:25:43;97518.41;;;13.99;98.30
51261;BME280;61705;46.228;24.812;2022-09-02T04:28:13;97517.53;;;13.98;98.12
51261;BME280;61705;46.228;24.812;2022-09-02T04:30:41;97509.47;;;14.00;98.02
51261;BME280;61705;46.228;24.812;2022-09-02T04:33:09;97508.63;;;13.99;97.73
51261;BME280;61705;46.228;24.812;2022-09-02T04:35:44;97522.75;;;14.00;97.79
51261;BME280;61705;46.228;24.812;2022-09-02T04:38:17;97514.66;;;14.02;98.23
51261;BME280;61705;46.228;24.812;2022-09-02T04:40:45;97519.53;;;14.09;98.14
51261;BME280;61705;46.228;24.812;2022-09-02T04:43:13;97523.41;;;14.18;98.52
51261;BME280;61705;46.228;24.812;2022-09-02T04:45:46;97522.75;;;14.14;98.15
51261;BME280;61705;46.228;24.812;2022-09-02T04:48:16;97522.47;;;14.19;98.20
51261;BME280;61705;46.228;24.812;2022-09-02T04:50:45;97519.81;;;14.19;98.11
51261;BME280;61705;46.228;24.812;2022-09-02T04:53:13;97522.66;;;14.16;97.73
51261;BME280;61705;46.228;24.812;2022-09-02T04:55:41;97521.03;;;14.13;97.44
51261;BME280;61705;46.228;24.812;2022-09-02T04:58:09;97526.25;;;14.15;97.68
51261;BME280;61705;46.228;24.812;2022-09-02T05:00:38;97524.66;;;14.27;97.55
51261;BME280;61705;46.228;24.812;2022-09-02T05:03:05;97527.00;;;14.31;97.29
51261;BME280;61705;46.228;24.812;2022-09-02T05:05:33;97530.81;;;14.27;96.80
51261;BME280;61705;46.228;24.812;2022-09-02T05:08:04;97535.16;;;14.28;96.72
51261;BME280;61705;46.228;24.812;2022-09-02T05:10:31;97533.34;;;14.29;96.79
51261;BME280;61705;46.228;24.812;2022-09-02T05:13:02;97538.91;;;14.26;96.52
51261;BME280;61705;46.228;24.812;2022-09-02T05:15:38;97540.28;;;14.31;95.92
51261;BME280;61705;46.228;24.812;2022-09-02T05:18:05;97541.06;;;14.33;95.55
51261;BME280;61705;46.228;24.812;2022-09-02T05:20:32;97542.75;;;14.34;95.34
51261;BME280;61705;46.228;24.812;2022-09-02T05:22:59;97535.63;;;14.35;95.14
51261;BME280;61705;46.228;24.812;2022-09-02T05:25:26;97539.44;;;14.31;95.11
51261;BME280;61705;46.228;24.812;2022-09-02T05:27:56;97540.03;;;14.36;95.33
51261;BME280;61705;46.228;24.812;2022-09-02T05:30:23;97539.63;;;14.42;95.50
51261;BME280;61705;46.228;24.812;2022-09-02T05:32:50;97534.88;;;14.47;95.57
51261;BME280;61705;46.228;24.812;2022-09-02T05:35:16;97540.03;;;14.50;95.35
51261;BME280;61705;46.228;24.812;2022-09-02T05:37:43;97539.63;;;14.42;95.56
51261;BME280;61705;46.228;24.812;2022-09-02T05:40:10;97543.53;;;14.51;95.46
51261;BME280;61705;46.228;24.812;2022-09-02T05:42:40;97540.50;;;14.57;95.32
51261;BME280;61705;46.228;24.812;2022-09-02T05:45:12;97546.66;;;14.57;95.12
51261;BME280;61705;46.228;24.812;2022-09-02T05:47:46;97540.88;;;14.51;94.64
51261;BME280;61705;46.228;24.812;2022-09-02T05:50:15;97538.13;;;14.52;94.10
51261;BME280;61705;46.228;24.812;2022-09-02T05:52:50;97538.22;;;14.51;93.35
51261;BME280;61705;46.228;24.812;2022-09-02T05:55:17;97542.50;;;14.53;93.24
51261;BME280;61705;46.228;24.812;2022-09-02T05:57:44;97545.06;;;14.55;93.68
51261;BME280;61705;46.228;24.812;2022-09-02T06:00:12;97550.06;;;14.59;93.29
51261;BME280;61705;46.228;24.812;2022-09-02T06:02:46;97543.91;;;14.59;93.22
51261;BME280;61705;46.228;24.812;2022-09-02T06:05:33;97545.31;;;14.64;93.19
51261;BME280;61705;46.228;24.812;2022-09-02T06:08:03;97546.16;;;14.65;93.22
51261;BME280;61705;46.228;24.812;2022-09-02T06:10:40;97550.72;;;14.77;93.66
51261;BME280;61705;46.228;24.812;2022-09-02T06:13:07;97552.31;;;14.80;93.07
51261;BME280;61705;46.228;24.812;2022-09-02T06:15:41;97551.72;;;14.89;92.61
51261;BME280;61705;46.228;24.812;2022-09-02T06:18:10;97555.41;;;14.86;92.60
51261;BME280;61705;46.228;24.812;2022-09-02T06:20:42;97552.41;;;14.78;92.31
51261;BME280;61705;46.228;24.812;2022-09-02T06:23:09;97552.88;;;14.85;92.52
51261;BME280;61705;46.228;24.812;2022-09-02T06:25:38;97553.22;;;14.93;92.56
51261;BME280;61705;46.228;24.812;2022-09-02T06:28:07;97560.50;;;15.04;91.76
51261;BME280;61705;46.228;24.812;2022-09-02T06:30:42;97562.34;;;14.89;91.61
51261;BME280;61705;46.228;24.812;2022-09-02T06:33:10;97560.47;;;14.91;91.84
51261;BME280;61705;46.228;24.812;2022-09-02T06:35:40;97566.38;;;14.82;92.01
51261;BME280;61705;46.228;24.812;2022-09-02T06:38:08;97572.03;;;14.90;91.93
51261;BME280;61705;46.228;24.812;2022-09-02T06:40:52;97572.09;;;15.03;91.44
51261;BME280;61705;46.228;24.812;2022-09-02T06:43:20;97580.66;;;15.08;91.67
51261;BME280;61705;46.228;24.812;2022-09-02T06:45:50;97568.78;;;14.99;91.38
51261;BME280;61705;46.228;24.812;2022-09-02T06:48:20;97576.97;;;14.96;90.71
51261;BME280;61705;46.228;24.812;2022-09-02T06:50:47;97579.88;;;15.06;90.87
51261;BME280;61705;46.228;24.812;2022-09-02T06:53:14;97587.72;;;14.95;90.34
51261;BME280;61705;46.228;24.812;2022-09-02T06:55:51;97584.28;;;14.92;90.18
51261;BME280;61705;46.228;24.812;2022-09-02T06:58:20;97584.09;;;14.96;90.26
51261;BME280;61705;46.228;24.812;2022-09-02T07:00:46;97589.38;;;15.10;89.87
51261;BME280;61705;46.228;24.812;2022-09-02T07:03:13;97587.81;;;15.20;89.34
51261;BME280;61705;46.228;24.812;2022-09-02T07:06:12;97589.25;;;15.26;89.32
51261;BME280;61705;46.228;24.812;2022-09-02T07:08:41;97591.78;;;15.27;88.84
51261;BME280;61705;46.228;24.812;2022-09-02T07:11:20;97592.09;;;15.23;88.04
51261;BME280;61705;46.228;24.812;2022-09-02T07:14:02;97599.03;;;15.25;88.06
51261;BME280;61705;46.228;24.812;2022-09-02T07:16:48;97600.69;;;15.13;87.74
51261;BME280;61705;46.228;24.812;2022-09-02T07:19:18;97591.91;;;15.26;87.71
51261;BME280;61705;46.228;24.812;2022-09-02T07:21:48;97594.38;;;15.29;87.50
51261;BME280;61705;46.228;24.812;2022-09-02T07:24:15;97597.50;;;15.21;86.56
51261;BME280;61705;46.228;24.812;2022-09-02T07:26:50;97593.00;;;15.09;86.85
51261;BME280;61705;46.228;24.812;2022-09-02T07:29:21;97593.91;;;15.22;86.68
51261;BME280;61705;46.228;24.812;2022-09-02T07:31:54;97600.53;;;15.29;86.87
51261;BME280;61705;46.228;24.812;2022-09-02T07:34:42;97600.13;;;15.35;86.39
51261;BME280;61705;46.228;24.812;2022-09-02T07:37:09;97601.91;;;15.22;86.28
51261;BME280;61705;46.228;24.812;2022-09-02T07:39:36;97602.41;;;15.14;86.38
51261;BME280;61705;46.228;24.812;2022-09-02T07:42:07;97605.16;;;15.13;87.21
51261;BME280;61705;46.228;24.812;2022-09-02T07:44:41;97612.47;;;15.09;86.98
51261;BME280;61705;46.228;24.812;2022-09-02T07:47:08;97608.78;;;15.12;86.91
51261;BME280;61705;46.228;24.812;2022-09-02T07:49:37;97611.13;;;15.16;87.02
51261;BME280;61705;46.228;24.812;2022-09-02T07:52:23;97601.84;;;15.36;87.21
51261;BME280;61705;46.228;24.812;2022-09-02T07:54:54;97609.91;;;15.35;86.68
51261;BME280;61705;46.228;24.812;2022-09-02T07:57:26;97607.22;;;15.22;86.40
51261;BME280;61705;46.228;24.812;2022-09-02T08:00:07;97608.66;;;15.13;86.07
51261;BME280;61705;46.228;24.812;2022-09-02T08:02:43;97607.81;;;15.13;86.85
51261;BME280;61705;46.228;24.812;2022-09-02T08:05:11;97599.75;;;15.14;86.98
51261;BME280;61705;46.228;24.812;2022-09-02T08:07:51;97608.91;;;14.96;87.65
51261;BME280;61705;46.228;24.812;2022-09-02T08:10:21;97603.53;;;15.10;87.96
51261;BME280;61705;46.228;24.812;2022-09-02T08:12:52;97605.28;;;15.24;88.62
51261;BME280;61705;46.228;24.812;2022-09-02T08:15:24;97607.72;;;15.14;87.62
51261;BME280;61705;46.228;24.812;2022-09-02T08:17:57;97607.28;;;15.08;86.82
51261;BME280;61705;46.228;24.812;2022-09-02T08:20:24;97610.22;;;15.03;87.10
51261;BME280;61705;46.228;24.812;2022-09-02T08:22:54;97607.28;;;14.93;87.54
51261;BME280;61705;46.228;24.812;2022-09-02T08:25:38;97609.06;;;15.07;87.63
51261;BME280;61705;46.228;24.812;2022-09-02T08:28:06;97602.03;;;15.33;87.54
51261;BME280;61705;46.228;24.812;2022-09-02T08:30:33;97597.44;;;15.23;86.90
51261;BME280;61705;46.228;24.812;2022-09-02T08:33:00;97596.19;;;15.14;87.01
51261;BME280;61705;46.228;24.812;2022-09-02T08:35:33;97594.50;;;15.13;87.10
51261;BME280;61705;46.228;24.812;2022-09-02T08:38:02;97599.88;;;14.99;86.67
51261;BME280;61705;46.228;24.812;2022-09-02T08:40:40;97592.69;;;15.13;87.52
51261;BME280;61705;46.228;24.812;2022-09-02T08:46:20;97585.72;;;15.25;86.28
51261;BME280;61705;46.228;24.812;2022-09-02T08:48:56;97585.34;;;15.17;86.83
51261;BME280;61705;46.228;24.812;2022-09-02T08:51:48;97588.41;;;15.11;87.45
51261;BME280;61705;46.228;24.812;2022-09-02T08:55:15;97579.75;;;15.22;87.53
51261;BME280;61705;46.228;24.812;2022-09-02T08:57:16;97574.75;;;15.03;87.38
51261;BME280;61705;46.228;24.812;2022-09-02T08:59:47;97581.66;;;15.20;87.56
51261;BME280;61705;46.228;24.812;2022-09-02T09:16:57;97586.81;;;15.35;88.62
51261;BME280;61705;46.228;24.812;2022-09-02T09:19:47;97590.66;;;15.44;88.15
51261;BME280;61705;46.228;24.812;2022-09-02T09:22:19;97593.34;;;15.44;88.40
51261;BME280;61705;46.228;24.812;2022-09-02T09:24:49;97593.78;;;15.51;87.87
51261;BME280;61705;46.228;24.812;2022-09-02T09:27:21;97594.88;;;15.61;87.67
51261;BME280;61705;46.228;24.812;2022-09-02T09:29:50;97594.38;;;15.69;87.81
51261;BME280;61705;46.228;24.812;2022-09-02T09:32:36;97596.34;;;15.52;87.76
51261;BME280;61705;46.228;24.812;2022-09-02T09:35:11;97589.22;;;15.65;88.01
51261;BME280;61705;46.228;24.812;2022-09-02T09:42:55;97584.81;;;15.52;86.84
51261;BME280;61705;46.228;24.812;2022-09-02T09:45:46;97590.69;;;15.84;86.93
51261;BME280;61705;46.228;24.812;2022-09-02T09:48:28;97583.34;;;15.87;86.60
51261;BME280;61705;46.228;24.812;2022-09-02T09:53:33;97579.06;;;15.85;85.68
51261;BME280;61705;46.228;24.812;2022-09-02T09:56:21;97577.94;;;15.62;85.16
51261;BME280;61705;46.228;24.812;2022-09-02T09:58:50;97585.72;;;15.65;85.67
51261;BME280;61705;46.228;24.812;2022-09-02T10:01:18;97586.75;;;15.90;86.31
51261;BME280;61705;46.228;24.812;2022-09-02T10:03:51;97589.97;;;15.95;85.64
51261;BME280;61705;46.228;24.812;2022-09-02T10:12:02;97581.09;;;15.81;86.81
51261;BME280;61705;46.228;24.812;2022-09-02T10:14:47;97579.22;;;15.56;86.62
51261;BME280;61705;46.228;24.812;2022-09-02T10:25:47;97574.88;;;15.68;86.56
51261;BME280;61705;46.228;24.812;2022-09-02T10:34:07;97578.84;;;15.48;87.73
51261;BME280;61705;46.228;24.812;2022-09-02T10:37:01;97570.22;;;15.45;88.26
51261;BME280;61705;46.228;24.812;2022-09-02T10:42:44;97565.22;;;15.40;88.86
51261;BME280;61705;46.228;24.812;2022-09-02T10:50:50;97576.00;;;15.24;89.34
51261;BME280;61705;46.228;24.812;2022-09-02T10:53:42;97568.00;;;15.11;89.25
51261;BME280;61705;46.228;24.812;2022-09-02T10:56:18;97568.28;;;15.07;89.96
51261;BME280;61705;46.228;24.812;2022-09-02T10:59:01;97574.31;;;15.23;89.85
51261;BME280;61705;46.228;24.812;2022-09-02T11:01:36;97571.78;;;15.22;89.85
51261;BME280;61705;46.228;24.812;2022-09-02T11:04:27;97566.19;;;15.12;89.72
51261;BME280;61705;46.228;24.812;2022-09-02T11:06:56;97567.44;;;15.06;90.12
51261;BME280;61705;46.228;24.812;2022-09-02T11:14:58;97559.25;;;15.09;90.75
51261;BME280;61705;46.228;24.812;2022-09-02T11:17:36;97564.31;;;15.00;90.13
51261;BME280;61705;46.228;24.812;2022-09-02T11:23:38;97565.16;;;15.14;90.45
51261;BME280;61705;46.228;24.812;2022-09-02T11:29:19;97559.13;;;15.11;89.79
51261;BME280;61705;46.228;24.812;2022-09-02T11:31:57;97551.25;;;15.09;89.53
51261;BME280;61705;46.228;24.812;2022-09-02T11:37:05;97565.56;;;15.21;89.56
51261;BME280;61705;46.228;24.812;2022-09-02T11:39:55;97554.84;;;14.96;89.85
51261;BME280;61705;46.228;24.812;2022-09-02T11:54:32;97539.25;;;14.89;90.36
51261;BME280;61705;46.228;24.812;2022-09-02T11:57:04;97537.41;;;14.77;90.16
51261;BME280;61705;46.228;24.812;2022-09-02T12:08:03;97535.09;;;14.85;90.64
51261;BME280;61705;46.228;24.812;2022-09-02T12:19:27;97529.19;;;14.95;90.97
51261;BME280;61705;46.228;24.812;2022-09-02T12:25:02;97525.06;;;15.03;90.13
51261;BME280;61705;46.228;24.812;2022-09-02T12:27:36;97524.19;;;15.03;89.80
51261;BME280;61705;46.228;24.812;2022-09-02T12:30:10;97515.03;;;14.94;89.36
51261;BME280;61705;46.228;24.812;2022-09-02T12:35:48;97513.50;;;14.90;90.03
51261;BME280;61705;46.228;24.812;2022-09-02T12:46:45;97502.00;;;14.89;89.54
51261;BME280;61705;46.228;24.812;2022-09-02T12:49:42;97501.34;;;14.86;89.54
51261;BME280;61705;46.228;24.812;2022-09-02T12:52:49;97494.84;;;14.77;89.50
51261;BME280;61705;46.228;24.812;2022-09-02T12:55:28;97498.91;;;14.83;90.06
51261;BME280;61705;46.228;24.812;2022-09-02T12:58:13;97493.69;;;14.81;89.46
51261;BME280;61705;46.228;24.812;2022-09-02T13:17:26;97479.09;;;14.74;89.20
51261;BME280;61705;46.228;24.812;2022-09-02T13:32:35;97472.66;;;14.64;88.68
51261;BME280;61705;46.228;24.812;2022-09-02T13:35:06;97471.56;;;14.54;88.82
51261;BME280;61705;46.228;24.812;2022-09-02T13:37:37;97465.16;;;14.56;89.09
51261;BME280;61705;46.228;24.812;2022-09-02T13:42:52;97463.19;;;14.60;88.82
51261;BME280;61705;46.228;24.812;2022-09-02T13:45:22;97459.56;;;14.61;88.44
51261;BME280;61705;46.228;24.812;2022-09-02T13:48:01;97458.06;;;14.57;88.58
51261;BME280;61705;46.228;24.812;2022-09-02T13:50:35;97460.06;;;14.53;88.68
51261;BME280;61705;46.228;24.812;2022-09-02T13:53:09;97453.28;;;14.62;89.37
51261;BME280;61705;46.228;24.812;2022-09-02T13:56:14;97459.09;;;14.54;89.26
51261;BME280;61705;46.228;24.812;2022-09-02T13:59:05;97450.28;;;14.54;89.32
51261;BME280;61705;46.228;24.812;2022-09-02T14:01:36;97450.22;;;14.68;89.47
51261;BME280;61705;46.228;24.812;2022-09-02T14:06:48;97449.63;;;14.77;89.22
51261;BME280;61705;46.228;24.812;2022-09-02T14:09:57;97443.44;;;14.77;89.14
51261;BME280;61705;46.228;24.812;2022-09-02T14:13:21;97448.91;;;14.88;88.84
51261;BME280;61705;46.228;24.812;2022-09-02T14:22:00;97454.69;;;14.95;88.91
51261;BME280;61705;46.228;24.812;2022-09-02T14:27:00;97451.56;;;14.88;88.81
51261;BME280;61705;46.228;24.812;2022-09-02T14:29:29;97450.47;;;14.78;88.75
51261;BME280;61705;46.228;24.812;2022-09-02T14:32:19;97447.56;;;14.68;88.71
51261;BME280;61705;46.228;24.812;2022-09-02T14:34:47;97448.75;;;14.77;89.26
51261;BME280;61705;46.228;24.812;2022-09-02T14:37:27;97450.09;;;14.69;88.46
51261;BME280;61705;46.228;24.812;2022-09-02T14:40:10;97457.16;;;14.71;88.59
51261;BME280;61705;46.228;24.812;2022-09-02T14:42:52;97460.34;;;14.76;88.35
51261;BME280;61705;46.228;24.812;2022-09-02T14:45:31;97456.69;;;14.64;88.62
51261;BME280;61705;46.228;24.812;2022-09-02T14:48:10;97455.94;;;14.62;88.64
51261;BME280;61705;46.228;24.812;2022-09-02T14:50:40;97460.47;;;14.74;89.24
51261;BME280;61705;46.228;24.812;2022-09-02T14:53:09;97463.00;;;14.76;89.13
51261;BME280;61705;46.228;24.812;2022-09-02T14:55:49;97456.25;;;14.84;89.53
51261;BME280;61705;46.228;24.812;2022-09-02T14:58:19;97464.03;;;14.87;89.19
51261;BME280;61705;46.228;24.812;2022-09-02T15:00:57;97459.09;;;14.81;88.46
51261;BME280;61705;46.228;24.812;2022-09-02T15:03:28;97465.47;;;14.79;88.94
51261;BME280;61705;46.228;24.812;2022-09-02T15:05:55;97463.78;;;14.90;89.09
51261;BME280;61705;46.228;24.812;2022-09-02T15:08:23;97464.69;;;14.91;89.31
51261;BME280;61705;46.228;24.812;2022-09-02T15:10:52;97465.59;;;14.77;88.95
51261;BME280;61705;46.228;24.812;2022-09-02T15:13:27;97470.25;;;14.74;89.52
51261;BME280;61705;46.228;24.812;2022-09-02T15:16:00;97468.66;;;14.71;89.61
51261;BME280;61705;46.228;24.812;2022-09-02T15:18:28;97468.06;;;14.66;89.81
51261;BME280;61705;46.228;24.812;2022-09-02T15:20:57;97463.59;;;14.66;89.49
51261;BME280;61705;46.228;24.812;2022-09-02T15:23:27;97466.63;;;14.75;89.49
51261;BME280;61705;46.228;24.812;2022-09-02T15:25:59;97460.56;;;14.73;89.52
51261;BME280;61705;46.228;24.812;2022-09-02T15:28:26;97455.09;;;14.61;89.84
51261;BME280;61705;46.228;24.812;2022-09-02T15:31:00;97464.78;;;14.48;89.62
51261;BME280;61705;46.228;24.812;2022-09-02T15:33:30;97468.97;;;14.52;89.81
51261;BME280;61705;46.228;24.812;2022-09-02T15:36:11;97463.25;;;14.58;89.96
51261;BME280;61705;46.228;24.812;2022-09-02T15:38:39;97461.91;;;14.65;90.05
51261;BME280;61705;46.228;24.812;2022-09-02T15:41:11;97464.22;;;14.57;89.77
51261;BME280;61705;46.228;24.812;2022-09-02T15:43:38;97462.03;;;14.50;90.11
51261;BME280;61705;46.228;24.812;2022-09-02T15:46:28;97460.91;;;14.54;90.10
51261;BME280;61705;46.228;24.812;2022-09-02T15:49:00;97459.66;;;14.59;90.31
51261;BME280;61705;46.228;24.812;2022-09-02T15:51:29;97455.47;;;14.55;90.62
51261;BME280;61705;46.228;24.812;2022-09-02T15:54:07;97456.44;;;14.54;90.80
51261;BME280;61705;46.228;24.812;2022-09-02T15:56:35;97455.28;;;14.58;90.29